地図

経路データ

SID SEASON NUMBER BASIN SUBBASIN NAME ISO_TIME NATURE LAT LON WMO_WIND WMO_PRES WMO_AGENCY TRACK_TYPE DIST2LAND LANDFALL IFLAG USA_AGENCY USA_ATCF_ID USA_LAT USA_LON USA_RECORD USA_STATUS USA_WIND USA_PRES USA_SSHS USA_R34_NE USA_R34_SE USA_R34_SW USA_R34_NW USA_R50_NE USA_R50_SE USA_R50_SW USA_R50_NW USA_R64_NE USA_R64_SE USA_R64_SW USA_R64_NW USA_POCI USA_ROCI USA_RMW USA_EYE TOKYO_LAT TOKYO_LON TOKYO_GRADE TOKYO_WIND TOKYO_PRES TOKYO_R50_DIR TOKYO_R50_LONG TOKYO_R50_SHORT TOKYO_R30_DIR TOKYO_R30_LONG TOKYO_R30_SHORT TOKYO_LAND CMA_LAT CMA_LON CMA_CAT CMA_WIND CMA_PRES HKO_LAT HKO_LON HKO_CAT HKO_WIND HKO_PRES NEWDELHI_LAT NEWDELHI_LON NEWDELHI_GRADE NEWDELHI_WIND NEWDELHI_PRES NEWDELHI_CI NEWDELHI_DP NEWDELHI_POCI REUNION_LAT REUNION_LON REUNION_TYPE REUNION_WIND REUNION_PRES REUNION_TNUM REUNION_CI REUNION_RMW REUNION_R34_NE REUNION_R34_SE REUNION_R34_SW REUNION_R34_NW REUNION_R50_NE REUNION_R50_SE REUNION_R50_SW REUNION_R50_NW REUNION_R64_NE REUNION_R64_SE REUNION_R64_SW REUNION_R64_NW BOM_LAT BOM_LON BOM_TYPE BOM_WIND BOM_PRES BOM_TNUM BOM_CI BOM_RMW BOM_R34_NE BOM_R34_SE BOM_R34_SW BOM_R34_NW BOM_R50_NE BOM_R50_SE BOM_R50_SW BOM_R50_NW BOM_R64_NE BOM_R64_SE BOM_R64_SW BOM_R64_NW BOM_ROCI BOM_POCI BOM_EYE BOM_POS_METHOD BOM_PRES_METHOD NADI_LAT NADI_LON NADI_CAT NADI_WIND NADI_PRES WELLINGTON_LAT WELLINGTON_LON WELLINGTON_WIND WELLINGTON_PRES DS824_LAT DS824_LON DS824_STAGE DS824_WIND DS824_PRES TD9636_LAT TD9636_LON TD9636_STAGE TD9636_WIND TD9636_PRES TD9635_LAT TD9635_LON TD9635_WIND TD9635_PRES TD9635_ROCI NEUMANN_LAT NEUMANN_LON NEUMANN_CLASS NEUMANN_WIND NEUMANN_PRES MLC_LAT MLC_LON MLC_CLASS MLC_WIND MLC_PRES USA_GUST BOM_GUST BOM_GUST_PER REUNION_GUST REUNION_GUST_PER USA_SEAHGT USA_SEARAD_NE USA_SEARAD_SE USA_SEARAD_SW USA_SEARAD_NW STORM_SPEED STORM_DIR
1902305S14061 1903 47 SI MM NOT_NAMED 1902-11-01 06:00:00 NR -14.4000 60.6000 reunion main 708 689 _____O________ -1 -14.4000 60.6000 99 9.90000 4 249
1902305S14061 1903 47 SI MM NOT_NAMED 1902-11-01 09:00:00 NR -14.4719 60.4033 main 689 680 _____P________ -1 -14.4719 60.4033 99 4 249
1902305S14061 1903 47 SI MM NOT_NAMED 1902-11-01 12:00:00 NR -14.5441 60.2051 main 680 662 _____P________ -1 -14.5441 60.2051 99 4 249
1902305S14061 1903 47 SI MM NOT_NAMED 1902-11-01 15:00:00 NR -14.6167 60.0038 main 662 644 _____P________ -1 -14.6167 60.0038 99 4 250
1902305S14061 1903 47 SI MM NOT_NAMED 1902-11-01 18:00:00 NR -14.6903 59.7979 main 644 626 _____P________ -1 -14.6903 59.7979 99 4 250
1902305S14061 1903 47 SI MM NOT_NAMED 1902-11-01 21:00:00 NR -14.7650 59.5861 main 626 619 _____P________ -1 -14.7650 59.5861 99 4 250
1902305S14061 1903 47 SI MM NOT_NAMED 1902-11-02 00:00:00 NR -14.8414 59.3669 main 619 603 _____P________ -1 -14.8414 59.3669 99 5 250
1902305S14061 1903 47 SI MM NOT_NAMED 1902-11-02 03:00:00 NR -14.9196 59.1386 main 600 584 _____P________ -1 -14.9196 59.1386 99 5 251
1902305S14061 1903 47 SI MM NOT_NAMED 1902-11-02 06:00:00 NR -15.0000 58.9000 reunion main 584 569 _____O________ -1 -15.0000 58.9000 99 9.90000 5 251
1902305S14061 1903 47 SI MM NOT_NAMED 1902-11-02 09:00:00 NR -15.0830 58.6500 main 567 553 _____P________ -1 -15.0830 58.6500 99 5 251
1902305S14061 1903 47 SI MM NOT_NAMED 1902-11-02 12:00:00 NR -15.1693 58.3896 main 553 538 _____P________ -1 -15.1693 58.3896 99 5 251
1902305S14061 1903 47 SI MM NOT_NAMED 1902-11-02 15:00:00 NR -15.2597 58.1205 main 538 537 _____P________ -1 -15.2597 58.1205 99 6 251
1902305S14061 1903 47 SI MM NOT_NAMED 1902-11-02 18:00:00 NR -15.3549 57.8443 main 526 525 _____P________ -1 -15.3549 57.8443 99 6 250
1902305S14061 1903 47 SI MM NOT_NAMED 1902-11-02 21:00:00 NR -15.4557 57.5626 main 514 503 _____P________ -1 -15.4557 57.5626 99 6 249
1902305S14061 1903 47 SI MM NOT_NAMED 1902-11-03 00:00:00 NR -15.5630 57.2769 main 503 494 _____P________ -1 -15.5630 57.2769 99 6 248
1902305S14061 1903 47 SI MM NOT_NAMED 1902-11-03 03:00:00 NR -15.6775 56.9888 main 495 486 _____P________ -1 -15.6775 56.9888 99 6 247
1902305S14061 1903 47 SI MM NOT_NAMED 1902-11-03 06:00:00 NR -15.8000 56.7000 reunion main 488 479 _____O________ -1 -15.8000 56.7000 99 9.90000 6 245
1902305S14061 1903 47 SI MM NOT_NAMED 1902-11-03 09:00:00 NR -15.9353 56.4002 main 484 471 _____P________ -1 -15.9353 56.4002 99 6 244
1902305S14061 1903 47 SI MM NOT_NAMED 1902-11-03 12:00:00 NR -16.0796 56.0962 main 471 467 _____P________ -1 -16.0796 56.0962 99 7 243
1902305S14061 1903 47 SI MM NOT_NAMED 1902-11-03 15:00:00 NR -16.2304 55.7917 main 471 460 _____P________ -1 -16.2304 55.7917 99 7 242
1902305S14061 1903 47 SI MM NOT_NAMED 1902-11-03 18:00:00 NR -16.3854 55.4908 main 464 459 _____P________ -1 -16.3854 55.4908 99 7 241
1902305S14061 1903 47 SI MM NOT_NAMED 1902-11-03 21:00:00 NR -16.5422 55.1972 main 470 460 _____P________ -1 -16.5422 55.1972 99 6 240
1902305S14061 1903 47 SI MM NOT_NAMED 1902-11-04 00:00:00 NR -16.6985 54.9149 main 468 466 _____P________ -1 -16.6985 54.9149 99 6 240
1902305S14061 1903 47 SI MM NOT_NAMED 1902-11-04 03:00:00 NR -16.8518 54.6478 main 464 453 _____P________ -1 -16.8518 54.6478 99 6 239
1902305S14061 1903 47 SI MM NOT_NAMED 1902-11-04 06:00:00 NR -17.0000 54.4000 reunion main 453 438 _____O________ -1 -17.0000 54.4000 99 9.90000 5 238
1902305S14061 1903 47 SI MM NOT_NAMED 1902-11-04 09:00:00 NR -17.1299 54.1826 main 438 423 _____P________ -1 -17.1299 54.1826 99 5 237
1902305S14061 1903 47 SI MM NOT_NAMED 1902-11-04 12:00:00 NR -17.2553 53.9844 main 428 413 _____P________ -1 -17.2553 53.9844 99 4 236
1902305S14061 1903 47 SI MM NOT_NAMED 1902-11-04 15:00:00 NR -17.3778 53.8017 main 413 399 _____P________ -1 -17.3778 53.8017 99 4 234
1902305S14061 1903 47 SI MM NOT_NAMED 1902-11-04 18:00:00 NR -17.4989 53.6313 main 399 394 _____P________ -1 -17.4989 53.6313 99 4 233
1902305S14061 1903 47 SI MM NOT_NAMED 1902-11-04 21:00:00 NR -17.6201 53.4694 main 394 380 _____P________ -1 -17.6201 53.4694 99 4 231
1902305S14061 1903 47 SI MM NOT_NAMED 1902-11-05 00:00:00 NR -17.7430 53.3126 main 380 377 _____P________ -1 -17.7430 53.3126 99 4 230
1902305S14061 1903 47 SI MM NOT_NAMED 1902-11-05 03:00:00 NR -17.8691 53.1573 main 381 365 _____P________ -1 -17.8691 53.1573 99 4 229
1902305S14061 1903 47 SI MM NOT_NAMED 1902-11-05 06:00:00 NR -18.0000 53.0000 reunion main 365 349 _____O________ -1 -18.0000 53.0000 99 9.90000 4 230
1902305S14061 1903 47 SI MM NOT_NAMED 1902-11-05 09:00:00 NR -18.1368 52.8192 main 349 334 _____P________ -1 -18.1368 52.8192 99 4 231
1902305S14061 1903 47 SI MM NOT_NAMED 1902-11-05 12:00:00 NR -18.2775 52.6376 main 334 324 _____P________ -1 -18.2775 52.6376 99 4 230
1902305S14061 1903 47 SI MM NOT_NAMED 1902-11-05 15:00:00 NR -18.4218 52.4566 main 326 307 _____P________ -1 -18.4218 52.4566 99 5 230
1902305S14061 1903 47 SI MM NOT_NAMED 1902-11-05 18:00:00 NR -18.5700 52.2773 main 309 290 _____P________ -1 -18.5700 52.2773 99 5 229
1902305S14061 1903 47 SI MM NOT_NAMED 1902-11-05 21:00:00 NR -18.7219 52.1007 main 290 274 _____P________ -1 -18.7219 52.1007 99 5 227
1902305S14061 1903 47 SI MM NOT_NAMED 1902-11-06 00:00:00 NR -18.8775 51.9282 main 274 268 _____P________ -1 -18.8775 51.9282 99 5 225
1902305S14061 1903 47 SI MM NOT_NAMED 1902-11-06 03:00:00 NR -19.0369 51.7609 main 268 257 _____P________ -1 -19.0369 51.7609 99 4 224
1902305S14061 1903 47 SI MM NOT_NAMED 1902-11-06 06:00:00 NR -19.2000 51.6000 reunion main 257 250 _____O________ -1 -19.2000 51.6000 99 9.90000 4 222
1902305S14061 1903 47 SI MM NOT_NAMED 1902-11-06 09:00:00 NR -19.3668 51.4463 main 244 237 _____P________ -1 -19.3668 51.4463 99 4 220
1902305S14061 1903 47 SI MM NOT_NAMED 1902-11-06 12:00:00 NR -19.5369 51.2992 main 237 230 _____P________ -1 -19.5369 51.2992 99 4 218
1902305S14061 1903 47 SI MM NOT_NAMED 1902-11-06 15:00:00 NR -19.7099 51.1577 main 233 223 _____P________ -1 -19.7099 51.1577 99 4 217
1902305S14061 1903 47 SI MM NOT_NAMED 1902-11-06 18:00:00 NR -19.8851 51.0208 main 223 218 _____P________ -1 -19.8851 51.0208 99 4 216
1902305S14061 1903 47 SI MM NOT_NAMED 1902-11-06 21:00:00 NR -20.0623 50.8876 main 219 209 _____P________ -1 -20.0623 50.8876 99 4 215
1902305S14061 1903 47 SI MM NOT_NAMED 1902-11-07 00:00:00 NR -20.2408 50.7570 main 210 193 _____P________ -1 -20.2408 50.7570 99 4 214
1902305S14061 1903 47 SI MM NOT_NAMED 1902-11-07 03:00:00 NR -20.4202 50.6282 main 193 185 _____P________ -1 -20.4202 50.6282 99 4 214
1902305S14061 1903 47 SI MM NOT_NAMED 1902-11-07 06:00:00 NR -20.6000 50.5000 reunion main 189 _____O________ -1 -20.6000 50.5000 99 9.90000 4 214

IBTrACS Databaseについて

本データベースは、米国NOAAが公開する1842年以降の世界の熱帯低気圧のベストトラックデータアーカイブInternational Best Track Archive for Climate Stewardship (IBTrACS)を、ウェブで閲覧しやすい形式に変換したものです。

最終更新日:2021-12-08